Time;durP1;ratioP1;P1;durP2;ratioP2;P2;SDS_P1;SDS_P2;PMS_P1;PMS_P2;Temp;Humidity;BMP_temperature;BMP_pressure;BME280_temperature;BME280_humidity;BME280_pressure;Samples;Min_cycle;Max_cycle;Signal;HPM_P1;HPM_P2
2023/01/19 00:02:24;;;;;;;4.82;1.45;;;3.50;99.90;;;;;;5011664;28;20033;-72
2023/01/19 00:04:50;;;;;;;7.68;1.75;;;3.50;99.90;;;;;;5010336;28;20041;-73
2023/01/19 00:07:16;;;;;;;3.13;1.20;;;3.50;99.90;;;;;;5009860;28;20465;-73
2023/01/19 00:09:41;;;;;;;6.72;1.63;;;3.50;99.90;;;;;;5012936;28;20083;-73
2023/01/19 00:12:07;;;;;;;6.47;1.25;;;3.50;99.90;;;;;;5010326;28;20145;-74
2023/01/19 00:14:33;;;;;;;4.68;1.45;;;3.50;99.90;;;;;;5010610;28;20490;-73
2023/01/19 00:17:00;;;;;;;6.57;2.03;;;3.60;99.90;;;;;;5007875;28;20560;-74
2023/01/19 00:19:26;;;;;;;14.63;1.98;;;3.70;99.90;;;;;;5009495;28;20092;-75
2023/01/19 00:21:51;;;;;;;6.05;1.27;;;3.60;99.90;;;;;;5007487;28;20490;-73
2023/01/19 00:24:17;;;;;;;5.85;0.95;;;3.70;99.90;;;;;;5008650;28;20022;-73
2023/01/19 00:26:43;;;;;;;3.92;1.40;;;3.70;99.90;;;;;;5009573;28;20034;-72
2023/01/19 00:29:12;;;;;;;3.88;1.35;;;3.60;99.90;;;;;;5008736;28;20101;-73
2023/01/19 00:31:38;;;;;;;7.60;1.15;;;3.70;99.90;;;;;;5009128;28;20030;-73
2023/01/19 00:34:05;;;;;;;3.92;0.98;;;3.70;99.90;;;;;;5007917;28;20398;-73
2023/01/19 00:36:31;;;;;;;10.75;2.47;;;3.70;99.90;;;;;;5007398;28;20552;-73
2023/01/19 00:38:56;;;;;;;7.93;1.20;;;3.70;99.90;;;;;;5003611;28;20030;-73
2023/01/19 00:42:38;;;;;;;6.22;1.05;;;3.60;99.90;;;;;;5008496;28;20045;-72
2023/01/19 00:44:07;;;;;;;5.60;0.85;;;3.70;99.90;;;;;;5007429;28;20033;-73
2023/01/19 00:46:33;;;;;;;4.60;0.77;;;3.80;99.90;;;;;;5009115;28;20375;-72
2023/01/19 00:48:59;;;;;;;2.58;0.50;;;3.80;99.90;;;;;;5007114;28;20529;-73
2023/01/19 00:51:24;;;;;;;5.18;0.30;;;3.80;99.90;;;;;;5007032;28;20115;-72
2023/01/19 00:53:50;;;;;;;4.25;1.00;;;3.70;99.90;;;;;;5006290;28;20029;-74
2023/01/19 00:56:16;;;;;;;3.53;0.30;;;3.70;99.90;;;;;;5008374;28;20048;-73
2023/01/19 00:58:43;;;;;;;3.50;0.30;;;3.70;99.90;;;;;;5007671;28;20034;-73
2023/01/19 01:01:08;;;;;;;2.28;0.10;;;3.70;99.90;;;;;;5006276;28;20113;-73
2023/01/19 01:03:34;;;;;;;1.92;0.10;;;3.60;99.90;;;;;;5008385;28;20076;-72
2023/01/19 01:05:59;;;;;;;1.70;0.30;;;3.60;99.90;;;;;;5008087;28;20026;-72
2023/01/19 01:08:25;;;;;;;0.73;0.10;;;3.50;99.90;;;;;;5006606;28;20034;-72
2023/01/19 01:10:51;;;;;;;0.30;0.00;;;3.50;99.90;;;;;;5006566;28;20030;-73
2023/01/19 01:13:16;;;;;;;5.47;0.52;;;3.50;99.90;;;;;;5006509;28;20109;-72
2023/01/19 01:15:42;;;;;;;3.38;0.17;;;3.50;99.90;;;;;;5008341;28;20140;-73
2023/01/19 01:18:08;;;;;;;4.13;0.20;;;3.50;99.90;;;;;;5007744;28;20517;-73
2023/01/19 01:20:35;;;;;;;3.30;0.80;;;3.50;99.90;;;;;;5006893;28;20065;-73
2023/01/19 01:23:02;;;;;;;1.48;0.10;;;3.60;99.90;;;;;;5006094;28;20506;-72
2023/01/19 01:25:29;;;;;;;1.80;0.10;;;3.60;99.90;;;;;;5007425;28;20038;-73
2023/01/19 01:27:55;;;;;;;3.92;0.10;;;3.60;99.90;;;;;;5009294;28;20034;-73
2023/01/19 01:30:22;;;;;;;2.80;0.30;;;3.60;99.90;;;;;;5007656;28;20065;-72
2023/01/19 01:32:48;;;;;;;4.80;0.20;;;3.60;99.90;;;;;;5010330;28;20410;-72
2023/01/19 01:35:15;;;;;;;11.02;0.68;;;3.70;99.90;;;;;;4996199;28;20119;-73
2023/01/19 01:37:41;;;;;;;3.67;0.70;;;3.70;99.90;;;;;;4996047;28;20185;-72
2023/01/19 01:40:12;;;;;;;4.65;0.98;;;3.80;99.90;;;;;;4994708;28;20120;-72
2023/01/19 01:42:39;;;;;;;5.50;1.10;;;3.80;99.90;;;;;;5006975;28;20030;-73
2023/01/19 01:45:20;;;;;;;7.32;0.60;;;3.80;99.90;;;;;;5007082;28;20113;-73
2023/01/19 01:47:47;;;;;;;;;;;3.90;99.90;;;;;;5007602;28;20037;-74
2023/01/19 01:50:31;;;;;;;7.78;1.17;;;3.90;99.90;;;;;;5000669;28;20393;-72
2023/01/19 01:52:59;;;;;;;2.97;0.77;;;4.00;99.90;;;;;;5003932;28;20156;-73
2023/01/19 01:55:26;;;;;;;6.85;0.52;;;4.00;99.90;;;;;;5006945;28;20069;-74
2023/01/19 01:58:01;;;;;;;3.05;0.50;;;4.00;99.90;;;;;;5005945;28;20061;-73
2023/01/19 02:02:49;;;;;;;4.05;0.40;;;4.00;99.90;;;;;;5005977;28;20576;-73
2023/01/19 02:03:14;;;;;;;0.68;0.10;;;4.00;99.90;;;;;;5005646;28;20057;-73
2023/01/19 02:05:41;;;;;;;2.03;0.20;;;4.00;99.90;;;;;;5003658;28;20080;-73
2023/01/19 02:13:46;;;;;;;0.85;0.20;;;3.90;99.90;;;;;;5003386;28;20040;-73
2023/01/19 02:16:13;;;;;;;3.08;0.40;;;3.90;99.90;;;;;;5001432;28;20065;-73
2023/01/19 02:18:40;;;;;;;1.55;0.52;;;3.80;99.90;;;;;;5007369;28;20128;-73
2023/01/19 02:21:30;;;;;;;4.22;0.20;;;3.70;99.90;;;;;;5003559;28;20064;-73
2023/01/19 02:23:59;;;;;;;2.15;0.30;;;3.70;99.90;;;;;;5004857;28;20108;-73
2023/01/19 02:26:28;;;;;;;5.82;0.35;;;3.60;99.90;;;;;;5010309;28;20034;-73
2023/01/19 02:29:00;;;;;;;4.20;0.30;;;3.50;99.90;;;;;;5006509;28;20130;-72
2023/01/19 02:31:28;;;;;;;6.13;0.38;;;3.50;99.90;;;;;;5009740;28;20037;-73
2023/01/19 02:33:55;;;;;;;4.90;0.28;;;3.50;99.90;;;;;;5006688;28;20038;-72
2023/01/19 02:36:25;;;;;;;4.38;0.57;;;3.50;99.90;;;;;;5004830;28;20061;-72
2023/01/19 02:38:55;;;;;;;4.00;0.20;;;3.50;99.90;;;;;;5007354;28;20037;-73
2023/01/19 02:41:25;;;;;;;3.63;0.40;;;3.50;99.90;;;;;;5006552;28;20061;-73
2023/01/19 02:43:52;;;;;;;2.25;0.32;;;3.60;99.90;;;;;;5006956;28;20041;-72
2023/01/19 02:46:18;;;;;;;4.70;0.93;;;3.60;99.90;;;;;;5007078;28;20132;-73
2023/01/19 02:48:44;;;;;;;0.30;0.30;;;3.60;99.90;;;;;;5011435;28;20124;-72
2023/01/19 02:51:29;;;;;;;4.22;0.30;;;3.70;99.90;;;;;;5011613;28;20454;-72
2023/01/19 02:54:11;;;;;;;6.07;0.85;;;3.50;99.90;;;;;;5007151;28;20406;-73
2023/01/19 02:57:04;;;;;;;1.38;0.10;;;3.40;99.90;;;;;;5009511;28;20037;-72
2023/01/19 02:59:53;;;;;;;3.03;0.15;;;3.30;99.90;;;;;;5009279;28;20045;-73
2023/01/19 03:02:22;;;;;;;2.55;0.85;;;3.20;99.90;;;;;;5010401;28;20060;-72
2023/01/19 03:05:00;;;;;;;5.35;1.02;;;3.10;99.90;;;;;;5013779;28;20038;-73
2023/01/19 03:07:49;;;;;;;2.28;0.20;;;3.10;99.90;;;;;;5010416;28;20084;-72
2023/01/19 03:10:30;;;;;;;1.63;0.63;;;3.00;99.90;;;;;;5010171;28;20054;-73
2023/01/19 03:13:01;;;;;;;6.00;0.20;;;3.00;99.90;;;;;;5010453;28;20080;-75
2023/01/19 03:15:43;;;;;;;2.38;0.40;;;3.00;99.90;;;;;;5010213;28;20030;-73
2023/01/19 03:18:11;;;;;;;3.83;0.68;;;2.90;99.90;;;;;;5008181;28;20042;-72
2023/01/19 03:20:39;;;;;;;2.67;0.10;;;2.90;99.90;;;;;;5009444;28;20100;-73
2023/01/19 03:23:09;;;;;;;0.93;0.20;;;2.90;99.90;;;;;;5009904;28;20506;-73
2023/01/19 03:25:38;;;;;;;4.63;0.25;;;2.90;99.90;;;;;;5010825;28;20041;-73
2023/01/19 03:28:04;;;;;;;1.10;0.00;;;2.90;99.90;;;;;;5009902;28;20033;-73
2023/01/19 03:30:35;;;;;;;3.63;0.40;;;2.90;99.90;;;;;;5009592;28;20351;-73
2023/01/19 03:33:09;;;;;;;1.35;0.10;;;2.90;99.90;;;;;;5011360;28;20645;-74
2023/01/19 03:35:42;;;;;;;4.18;0.30;;;3.00;99.90;;;;;;5001874;28;20511;-73
2023/01/19 03:38:14;;;;;;;2.50;0.20;;;2.90;99.90;;;;;;5005890;28;20449;-72
2023/01/19 03:40:40;;;;;;;4.88;0.40;;;2.90;99.90;;;;;;5011190;28;20034;-73
2023/01/19 03:43:07;;;;;;;1.08;0.13;;;2.90;99.90;;;;;;5011487;28;20040;-74
2023/01/19 03:45:37;;;;;;;3.45;0.00;;;2.80;99.90;;;;;;5011226;28;20493;-73
2023/01/19 03:48:03;;;;;;;3.10;0.73;;;2.80;99.90;;;;;;5008890;28;20088;-72
2023/01/19 03:50:30;;;;;;;0.28;0.00;;;2.80;99.90;;;;;;5010208;28;20053;-73
2023/01/19 03:53:08;;;;;;;1.55;0.30;;;2.80;99.90;;;;;;5007881;28;20040;-72
2023/01/19 03:55:34;;;;;;;0.20;0.10;;;2.70;99.90;;;;;;5003909;28;20049;-73
2023/01/19 03:58:00;;;;;;;1.15;0.40;;;2.70;99.90;;;;;;5008859;28;20026;-74
2023/01/19 04:00:26;;;;;;;1.25;0.20;;;2.70;99.90;;;;;;5007914;28;20038;-73
2023/01/19 04:02:51;;;;;;;3.67;0.28;;;2.70;99.90;;;;;;5009641;28;20041;-72
2023/01/19 04:05:18;;;;;;;2.58;0.38;;;2.70;99.90;;;;;;5007236;28;20053;-73
2023/01/19 04:07:43;;;;;;;7.78;0.40;;;2.60;99.90;;;;;;5009983;28;20034;-73
2023/01/19 04:10:11;;;;;;;3.65;0.30;;;2.70;99.90;;;;;;5008580;28;20111;-72
2023/01/19 04:12:38;;;;;;;3.72;0.38;;;2.70;99.90;;;;;;5008561;28;20113;-73
2023/01/19 04:15:05;;;;;;;4.93;0.40;;;2.70;99.90;;;;;;5007026;28;20044;-73
2023/01/19 04:17:31;;;;;;;4.18;0.30;;;2.70;99.90;;;;;;5006947;28;20050;-73
2023/01/19 04:19:56;;;;;;;9.52;0.52;;;2.70;99.90;;;;;;5006666;28;20062;-73
2023/01/19 04:22:22;;;;;;;4.20;0.50;;;2.80;99.90;;;;;;5006168;28;20042;-73
2023/01/19 04:24:47;;;;;;;6.63;0.73;;;2.80;99.90;;;;;;5007841;28;20034;-73
2023/01/19 04:27:15;;;;;;;1.60;0.35;;;2.70;99.90;;;;;;5010970;28;20034;-73
2023/01/19 04:29:41;;;;;;;4.25;0.40;;;2.70;99.90;;;;;;5007841;28;20096;-72
2023/01/19 04:32:06;;;;;;;2.80;0.20;;;2.70;99.90;;;;;;5010620;28;20030;-73
2023/01/19 04:34:32;;;;;;;2.83;0.32;;;2.70;99.90;;;;;;5009198;28;20562;-73
2023/01/19 04:36:58;;;;;;;1.60;0.10;;;2.70;99.90;;;;;;5007231;28;20090;-73
2023/01/19 04:39:23;;;;;;;5.70;0.50;;;2.70;99.90;;;;;;5007154;28;20366;-73
2023/01/19 04:41:50;;;;;;;4.45;0.65;;;2.70;99.90;;;;;;5009317;28;20030;-74
2023/01/19 04:44:16;;;;;;;2.72;0.30;;;2.70;99.90;;;;;;5006449;28;20042;-73
2023/01/19 04:46:42;;;;;;;3.45;0.68;;;2.70;99.90;;;;;;5008785;28;20559;-73
2023/01/19 04:49:09;;;;;;;4.95;0.45;;;2.70;99.90;;;;;;5006738;28;20141;-74
2023/01/19 04:51:34;;;;;;;8.45;1.02;;;2.70;99.90;;;;;;5007379;28;20038;-72
2023/01/19 04:54:01;;;;;;;7.40;1.20;;;2.70;99.90;;;;;;5008186;28;20561;-74
2023/01/19 04:56:27;;;;;;;2.33;0.43;;;2.70;99.90;;;;;;5006265;28;20042;-73
2023/01/19 04:58:52;;;;;;;3.08;0.98;;;2.70;99.90;;;;;;5008231;28;20433;-73
2023/01/19 05:01:18;;;;;;;4.32;0.68;;;2.70;99.90;;;;;;5006756;28;20022;-74
2023/01/19 05:03:43;;;;;;;6.78;0.38;;;2.80;99.90;;;;;;5006994;28;20030;-74
2023/01/19 05:06:09;;;;;;;2.45;0.80;;;2.80;99.90;;;;;;5007923;28;20034;-73
2023/01/19 05:08:35;;;;;;;9.38;1.33;;;2.90;99.90;;;;;;5008608;28;20034;-73
2023/01/19 05:11:00;;;;;;;2.50;0.55;;;2.90;99.90;;;;;;5007978;28;20462;-73
2023/01/19 05:13:26;;;;;;;7.82;1.50;;;3.00;99.90;;;;;;5006024;28;20034;-72
2023/01/19 05:15:52;;;;;;;13.10;2.08;;;3.00;99.90;;;;;;5006683;28;20824;-74
2023/01/19 05:18:17;;;;;;;7.00;1.27;;;3.10;99.90;;;;;;5006774;28;20041;-73
2023/01/19 05:20:43;;;;;;;8.23;1.02;;;3.10;99.90;;;;;;5008493;28;20081;-73
2023/01/19 05:23:08;;;;;;;7.05;2.13;;;3.10;99.90;;;;;;5007504;28;20037;-73
2023/01/19 05:25:34;;;;;;;6.18;1.38;;;3.10;99.90;;;;;;5010138;28;20037;-72
2023/01/19 05:28:01;;;;;;;5.25;0.70;;;3.10;99.90;;;;;;5006299;28;20046;-73
2023/01/19 05:30:27;;;;;;;5.95;1.17;;;3.10;99.90;;;;;;5006650;28;20045;-73
2023/01/19 05:32:53;;;;;;;2.03;0.47;;;3.10;99.90;;;;;;5007156;28;20049;-74
2023/01/19 05:35:18;;;;;;;11.73;2.28;;;3.10;99.90;;;;;;5005616;28;20034;-73
2023/01/19 05:37:44;;;;;;;10.23;1.10;;;3.10;99.90;;;;;;5007957;28;20065;-73
2023/01/19 05:40:10;;;;;;;3.78;0.60;;;3.10;99.90;;;;;;5004680;28;20025;-74
2023/01/19 05:42:36;;;;;;;4.43;0.75;;;3.10;99.90;;;;;;5007473;28;20083;-73
2023/01/19 05:45:02;;;;;;;4.93;0.57;;;3.00;99.90;;;;;;5006964;28;20414;-73
2023/01/19 05:47:29;;;;;;;10.07;1.30;;;3.00;99.90;;;;;;5007032;28;20045;-73
2023/01/19 05:49:54;;;;;;;8.57;0.80;;;2.90;99.90;;;;;;5005344;28;20040;-73
2023/01/19 05:52:20;;;;;;;7.43;0.68;;;2.90;99.90;;;;;;5007389;28;20049;-74
2023/01/19 05:54:47;;;;;;;12.18;1.27;;;2.80;99.90;;;;;;5007641;28;20026;-73
2023/01/19 05:57:13;;;;;;;6.78;0.50;;;2.90;99.90;;;;;;5007731;28;20084;-73
2023/01/19 05:59:39;;;;;;;11.13;1.13;;;2.90;99.90;;;;;;5006982;28;20564;-73
2023/01/19 06:02:05;;;;;;;7.32;1.10;;;2.90;99.90;;;;;;5005860;28;20030;-73
2023/01/19 06:04:30;;;;;;;6.57;0.65;;;2.90;99.90;;;;;;5013106;28;20113;-73
2023/01/19 06:06:56;;;;;;;22.33;2.35;;;2.90;99.90;;;;;;4999447;28;20439;-74
2023/01/19 06:09:22;;;;;;;13.38;0.98;;;2.90;99.90;;;;;;4998058;28;20032;-73
2023/01/19 06:11:47;;;;;;;13.93;1.25;;;2.90;99.90;;;;;;5003574;28;20113;-73
2023/01/19 06:14:13;;;;;;;8.57;0.85;;;2.90;99.90;;;;;;5003306;28;20052;-73
2023/01/19 06:16:39;;;;;;;3.35;0.98;;;3.00;99.90;;;;;;5002268;28;20052;-74
2023/01/19 06:19:05;;;;;;;9.90;2.03;;;2.90;99.90;;;;;;5006057;28;20038;-73
2023/01/19 06:21:31;;;;;;;12.63;1.67;;;2.90;99.90;;;;;;5002422;28;20053;-72
2023/01/19 06:23:57;;;;;;;10.13;1.10;;;2.90;99.90;;;;;;5004830;28;20041;-74
2023/01/19 06:26:23;;;;;;;15.48;3.00;;;2.90;99.90;;;;;;5012152;28;20046;-74
2023/01/19 06:28:50;;;;;;;10.27;1.13;;;2.90;99.90;;;;;;5002713;28;20099;-74
2023/01/19 06:31:17;;;;;;;7.22;1.52;;;2.90;99.90;;;;;;5003815;28;20434;-73
2023/01/19 06:33:42;;;;;;;17.70;1.33;;;2.90;99.90;;;;;;5008782;28;20058;-73
2023/01/19 06:36:08;;;;;;;12.00;0.95;;;2.90;99.90;;;;;;5004775;28;20072;-72
2023/01/19 06:38:34;;;;;;;7.57;1.23;;;2.90;99.90;;;;;;5000966;28;20164;-73
2023/01/19 06:41:01;;;;;;;5.65;1.02;;;2.90;99.90;;;;;;5000400;28;20062;-72
2023/01/19 06:43:27;;;;;;;9.00;1.83;;;2.90;99.90;;;;;;4998917;28;20116;-72
2023/01/19 06:45:53;;;;;;;5.72;1.00;;;2.90;99.90;;;;;;5006882;28;20406;-74
2023/01/19 06:48:19;;;;;;;7.45;1.20;;;2.80;99.90;;;;;;5004135;28;20467;-73
2023/01/19 06:50:46;;;;;;;11.93;1.52;;;2.80;99.90;;;;;;5003709;28;20125;-73
2023/01/19 06:53:12;;;;;;;15.98;1.70;;;2.70;99.90;;;;;;5002212;28;20045;-74
2023/01/19 06:55:38;;;;;;;12.00;1.33;;;2.70;99.90;;;;;;5004298;28;20091;-73
2023/01/19 06:58:03;;;;;;;6.15;1.20;;;2.60;99.90;;;;;;4998805;28;20037;-73
2023/01/19 07:00:29;;;;;;;9.00;1.50;;;2.60;99.90;;;;;;5000343;28;20447;-73
2023/01/19 07:02:55;;;;;;;9.38;0.85;;;2.50;99.90;;;;;;5001542;28;20038;-74
2023/01/19 07:05:21;;;;;;;8.77;1.25;;;2.50;99.90;;;;;;5004263;28;20042;-73
2023/01/19 07:07:56;;;;;;;7.57;1.65;;;2.50;99.90;;;;;;5013655;28;20093;-73
2023/01/19 07:10:23;;;;;;;14.60;1.10;;;2.40;99.90;;;;;;5004503;28;20040;-74
2023/01/19 07:12:49;;;;;;;16.33;1.77;;;2.30;99.90;;;;;;5004304;28;20045;-74
2023/01/19 07:15:18;;;;;;;19.48;2.67;;;2.30;99.90;;;;;;4997837;28;20431;-73
2023/01/19 07:17:44;;;;;;;8.23;1.67;;;2.30;99.90;;;;;;5009059;28;20470;-74
2023/01/19 07:20:13;;;;;;;13.48;1.52;;;2.30;99.90;;;;;;5002736;28;20038;-73
2023/01/19 07:22:40;;;;;;;8.88;1.77;;;2.20;99.90;;;;;;5003939;28;20434;-73
2023/01/19 07:25:06;;;;;;;6.70;1.15;;;2.30;99.90;;;;;;5003959;28;20462;-73
2023/01/19 07:27:31;;;;;;;11.32;1.45;;;2.20;99.90;;;;;;4999631;28;20050;-73
2023/01/19 07:29:57;;;;;;;16.83;1.58;;;2.20;99.90;;;;;;5005841;28;20072;-74
2023/01/19 07:32:23;;;;;;;9.93;1.88;;;2.20;99.90;;;;;;5004334;28;20130;-74
2023/01/19 07:34:48;;;;;;;6.57;1.58;;;2.30;99.90;;;;;;5004839;28;20124;-75
2023/01/19 07:37:14;;;;;;;20.23;1.60;;;2.30;99.90;;;;;;5008464;28;20393;-72
2023/01/19 07:39:39;;;;;;;7.50;1.17;;;2.20;99.90;;;;;;4999911;28;20042;-73
2023/01/19 07:42:05;;;;;;;14.32;2.28;;;2.20;99.90;;;;;;5010229;28;20041;-74
2023/01/19 07:44:31;;;;;;;13.77;1.10;;;2.20;99.90;;;;;;5003498;28;20490;-72
2023/01/19 07:46:57;;;;;;;12.02;2.22;;;2.30;99.90;;;;;;5003022;28;20096;-74
2023/01/19 07:49:23;;;;;;;13.02;2.08;;;2.20;99.90;;;;;;5002532;28;20569;-73
2023/01/19 07:51:48;;;;;;;19.67;2.05;;;2.20;99.90;;;;;;5010139;28;20069;-73
2023/01/19 07:54:14;;;;;;;12.77;1.58;;;2.20;99.90;;;;;;5002027;28;20069;-72
2023/01/19 07:56:40;;;;;;;21.15;1.90;;;2.30;99.90;;;;;;5008940;28;20034;-73
2023/01/19 07:59:08;;;;;;;10.38;2.10;;;2.30;99.90;;;;;;5004669;28;20062;-73
2023/01/19 08:01:34;;;;;;;11.63;0.95;;;2.40;99.90;;;;;;5006530;28;20042;-73
2023/01/19 08:03:59;;;;;;;18.67;2.63;;;2.40;99.90;;;;;;4998972;28;20034;-73
2023/01/19 08:06:44;;;;;;;10.65;1.13;;;2.40;99.90;;;;;;5007186;28;20058;-73
2023/01/19 08:09:10;;;;;;;12.32;1.17;;;2.30;99.90;;;;;;5003732;28;20030;-74
2023/01/19 08:11:36;;;;;;;9.73;1.80;;;2.30;99.90;;;;;;5004378;28;20450;-72
2023/01/19 08:14:02;;;;;;;11.25;1.98;;;2.30;99.90;;;;;;5002379;28;20117;-72
2023/01/19 08:16:28;;;;;;;6.88;1.02;;;2.30;99.90;;;;;;5004027;28;20038;-73
2023/01/19 08:18:54;;;;;;;13.05;2.03;;;2.20;99.90;;;;;;5003558;28;20065;-74
2023/01/19 08:21:20;;;;;;;5.05;0.90;;;2.30;99.90;;;;;;4996862;28;20053;-73
2023/01/19 08:23:53;;;;;;;9.02;1.48;;;2.40;99.90;;;;;;5002418;28;20034;-73
2023/01/19 08:26:26;;;;;;;5.63;0.63;;;2.40;99.90;;;;;;5002667;28;20057;-73
2023/01/19 08:28:52;;;;;;;7.25;0.90;;;2.40;99.90;;;;;;5001685;28;20038;-73
2023/01/19 08:31:18;;;;;;;11.25;1.08;;;2.50;99.90;;;;;;5000909;28;20045;-72
2023/01/19 08:33:43;;;;;;;8.07;2.35;;;2.50;99.90;;;;;;4992513;28;20042;-73
2023/01/19 08:36:09;;;;;;;5.88;0.98;;;2.60;99.90;;;;;;5005910;28;20048;-71
2023/01/19 08:38:34;;;;;;;5.20;1.20;;;2.60;99.90;;;;;;4988176;28;20292;-73
2023/01/19 08:41:00;;;;;;;2.92;0.30;;;2.70;99.90;;;;;;4993916;28;20375;-73
2023/01/19 08:43:25;;;;;;;4.97;1.00;;;2.70;99.90;;;;;;5013171;28;20033;-72
2023/01/19 08:45:52;;;;;;;4.85;0.65;;;2.80;99.90;;;;;;5002041;28;20054;-73
2023/01/19 08:48:23;;;;;;;6.78;0.80;;;2.90;99.90;;;;;;4996806;28;20592;-73
2023/01/19 08:50:50;;;;;;;2.22;0.50;;;3.00;99.90;;;;;;5014455;28;20600;-72
2023/01/19 08:53:16;;;;;;;5.18;0.70;;;3.10;99.90;;;;;;5000211;28;20119;-73
2023/01/19 08:55:43;;;;;;;6.82;0.60;;;3.20;99.90;;;;;;5000730;28;20050;-74
2023/01/19 08:58:09;;;;;;;6.05;0.70;;;3.30;99.90;;;;;;5015448;28;20033;-74
2023/01/19 09:00:36;;;;;;;2.60;0.57;;;3.40;99.90;;;;;;4997783;28;20045;-72
2023/01/19 09:03:03;;;;;;;3.75;0.60;;;3.50;99.90;;;;;;4995653;28;20038;-75
2023/01/19 09:05:34;;;;;;;6.32;1.05;;;3.60;99.90;;;;;;5004781;28;20038;-74
2023/01/19 09:08:01;;;;;;;1.98;0.70;;;3.70;99.90;;;;;;5007786;28;20037;-74
2023/01/19 09:10:30;;;;;;;25.35;1.88;;;3.80;99.90;;;;;;5004520;28;20034;-74
2023/01/19 09:12:56;;;;;;;9.68;1.10;;;3.90;99.90;;;;;;5000778;28;20405;-73
2023/01/19 09:15:22;;;;;;;10.98;1.52;;;3.90;99.90;;;;;;5000973;28;20065;-73
2023/01/19 09:17:48;;;;;;;12.23;2.08;;;4.00;99.90;;;;;;5002533;28;20037;-76
2023/01/19 09:20:13;;;;;;;6.63;0.70;;;4.00;99.90;;;;;;5002778;28;20407;-74
2023/01/19 09:22:39;;;;;;;6.22;1.85;;;4.10;99.90;;;;;;5005422;28;20402;-75
2023/01/19 09:25:06;;;;;;;7.65;1.15;;;4.10;99.90;;;;;;5004426;28;20228;-73
2023/01/19 09:27:31;;;;;;;2.83;0.55;;;4.00;99.90;;;;;;5004729;28;20034;-74
2023/01/19 09:29:57;;;;;;;7.47;1.05;;;4.00;99.90;;;;;;5000526;28;20826;-74
2023/01/19 09:32:23;;;;;;;3.65;1.13;;;4.00;99.90;;;;;;5016587;28;20087;-74
2023/01/19 09:34:48;;;;;;;10.13;0.80;;;4.00;99.90;;;;;;4996890;28;20026;-74
2023/01/19 09:37:15;;;;;;;5.80;0.70;;;4.00;99.90;;;;;;5002777;28;20042;-73
2023/01/19 09:39:40;;;;;;;4.47;0.60;;;3.90;99.90;;;;;;5003361;28;20034;-74
2023/01/19 09:42:28;;;;;;;8.57;1.23;;;4.00;99.90;;;;;;5004323;28;20034;-72
2023/01/19 09:44:53;;;;;;;6.30;0.60;;;4.00;99.90;;;;;;5001919;28;20439;-74
2023/01/19 09:47:24;;;;;;;4.65;0.50;;;4.00;99.90;;;;;;5002303;28;20575;-74
2023/01/19 09:49:57;;;;;;;9.38;1.02;;;4.00;99.90;;;;;;5005930;28;20026;-74
2023/01/19 09:52:23;;;;;;;5.78;0.98;;;4.10;99.90;;;;;;5001473;28;20069;-73
2023/01/19 09:54:53;;;;;;;7.85;0.98;;;4.10;99.90;;;;;;5000351;28;20061;-75
2023/01/19 09:57:21;;;;;;;4.30;0.63;;;4.10;99.90;;;;;;5002860;28;20487;-74
2023/01/19 09:59:49;;;;;;;10.60;0.50;;;4.20;99.90;;;;;;4998104;28;20065;-74
2023/01/19 10:02:38;;;;;;;4.82;1.35;;;4.20;99.90;;;;;;5001258;28;20495;-73
2023/01/19 10:05:31;;;;;;;3.92;0.70;;;4.20;99.90;;;;;;5001049;28;20084;-73
2023/01/19 10:08:07;;;;;;;8.38;1.33;;;4.30;99.90;;;;;;5001626;28;20148;-74
2023/01/19 10:10:35;;;;;;;10.25;0.95;;;4.30;99.90;;;;;;4998189;28;20117;-75
2023/01/19 10:13:38;;;;;;;3.78;0.60;;;4.40;99.90;;;;;;5006583;28;20023;-73
2023/01/19 10:16:08;;;;;;;8.50;1.10;;;4.40;99.90;;;;;;4998330;28;20042;-74
2023/01/19 10:18:42;;;;;;;11.95;1.42;;;4.40;99.90;;;;;;4999589;28;20042;-74
2023/01/19 10:21:09;;;;;;;19.38;1.83;;;4.50;99.90;;;;;;5015445;28;20521;-76
2023/01/19 10:23:38;;;;;;;6.00;1.45;;;4.60;99.90;;;;;;5004525;28;20053;-74
2023/01/19 10:26:44;;;;;;;7.57;1.00;;;4.60;99.90;;;;;;5000395;28;20033;-75
2023/01/19 10:29:22;;;;;;;5.47;1.13;;;4.70;99.90;;;;;;4990113;28;20480;-74
2023/01/19 10:31:50;;;;;;;4.32;0.85;;;4.70;99.90;;;;;;5000992;28;20117;-75
2023/01/19 10:34:19;;;;;;;6.60;1.70;;;4.80;99.90;;;;;;4999921;28;20072;-74
2023/01/19 10:36:49;;;;;;;13.90;1.50;;;4.80;99.90;;;;;;4999362;28;20056;-72
2023/01/19 10:39:17;;;;;;;9.68;0.88;;;4.80;99.90;;;;;;5010079;28;20061;-74
2023/01/19 10:41:52;;;;;;;7.13;0.80;;;4.80;99.90;;;;;;5004839;28;20037;-75
2023/01/19 10:44:26;;;;;;;5.35;1.45;;;4.90;99.90;;;;;;4987527;28;20521;-75
2023/01/19 10:46:55;;;;;;;4.18;0.70;;;5.00;99.90;;;;;;5002781;28;20048;-74
2023/01/19 10:49:38;;;;;;;10.65;1.30;;;5.10;99.90;;;;;;5002496;28;20045;-73
2023/01/19 10:52:07;;;;;;;10.30;0.95;;;5.10;99.90;;;;;;5007518;28;20036;-75
2023/01/19 10:54:36;;;;;;;1.20;0.38;;;5.20;99.90;;;;;;4999223;28;20026;-72
2023/01/19 10:57:07;;;;;;;10.40;1.25;;;5.20;99.90;;;;;;4996721;28;20180;-76
2023/01/19 10:59:50;;;;;;;9.43;0.80;;;5.20;99.90;;;;;;5005729;28;20827;-75
2023/01/19 11:02:21;;;;;;;4.72;0.57;;;5.20;99.90;;;;;;4998687;28;20037;-75
2023/01/19 11:04:52;;;;;;;9.13;0.57;;;5.20;99.90;;;;;;5001255;28;20038;-75
2023/01/19 11:07:28;;;;;;;6.68;0.60;;;5.20;99.90;;;;;;5000084;28;20042;-74
2023/01/19 11:10:14;;;;;;;9.55;0.45;;;5.40;99.90;;;;;;5004611;28;20042;-74
2023/01/19 11:12:42;;;;;;;3.25;0.80;;;6.20;99.90;;;;;;5008193;28;20448;-75
2023/01/19 11:15:39;;;;;;;4.72;0.30;;;6.90;99.90;;;;;;5001592;28;20030;-74
2023/01/19 11:18:06;;;;;;;4.60;0.52;;;7.40;99.90;;;;;;5005697;28;20113;-74
2023/01/19 11:20:53;;;;;;;4.80;0.50;;;7.30;99.90;;;;;;5003110;28;20046;-75
2023/01/19 11:23:27;;;;;;;1.55;0.40;;;6.90;99.90;;;;;;5005120;28;20037;-74
2023/01/19 11:25:57;;;;;;;3.72;0.40;;;6.70;99.90;;;;;;5005112;28;20334;-75
2023/01/19 11:28:47;;;;;;;4.43;0.75;;;6.50;99.90;;;;;;5010552;28;20148;-75
2023/01/19 11:31:12;;;;;;;10.45;1.92;;;6.70;99.90;;;;;;4997199;28;20038;-75
2023/01/19 11:33:48;;;;;;;6.07;0.40;;;7.20;99.90;;;;;;4993537;28;20054;-74
2023/01/19 11:36:19;;;;;;;3.03;0.40;;;7.60;99.90;;;;;;4998083;28;20057;-74
2023/01/19 11:38:50;;;;;;;1.73;0.43;;;7.90;99.90;;;;;;4999516;28;20026;-74
2023/01/19 11:41:23;;;;;;;4.70;0.40;;;8.10;99.90;;;;;;4999215;28;20212;-74
2023/01/19 11:43:53;;;;;;;4.25;0.30;;;7.80;99.90;;;;;;4994620;28;20568;-74
2023/01/19 11:46:19;;;;;;;1.30;0.40;;;7.60;99.90;;;;;;4995340;28;20031;-73
2023/01/19 11:49:06;;;;;;;2.22;0.30;;;7.40;99.90;;;;;;5001288;28;20119;-74
2023/01/19 11:51:50;;;;;;;8.05;0.40;;;7.10;99.90;;;;;;4993458;28;20184;-74
2023/01/19 11:54:26;;;;;;;1.40;0.30;;;7.00;99.90;;;;;;4999144;28;20042;-74
2023/01/19 11:56:54;;;;;;;3.58;0.35;;;6.90;99.90;;;;;;4998235;28;20495;-74
2023/01/19 11:59:23;;;;;;;2.05;0.30;;;6.80;99.90;;;;;;4999725;28;20057;-73
2023/01/19 12:01:54;;;;;;;1.58;0.30;;;6.80;99.90;;;;;;4997791;28;20494;-75
2023/01/19 12:04:28;;;;;;;;;;;6.70;99.90;;;;;;4996196;28;20660;-75
2023/01/19 12:06:56;;;;;;;6.35;0.20;;;6.60;99.90;;;;;;5001616;28;20467;-73
2023/01/19 12:09:27;;;;;;;5.38;0.85;;;6.40;99.90;;;;;;5003551;28;20038;-74
2023/01/19 12:12:02;;;;;;;;;;;6.20;99.90;;;;;;5003039;28;20052;-75
2023/01/19 12:14:55;;;;;;;1.73;0.30;;;6.00;99.90;;;;;;5001223;28;19913;-74
2023/01/19 12:17:38;;;;;;;5.53;0.30;;;5.90;99.90;;;;;;5000491;28;20034;-75
2023/01/19 12:20:16;;;;;;;2.33;0.30;;;5.90;99.90;;;;;;5003984;28;20069;-74
2023/01/19 12:22:49;;;;;;;4.90;1.13;;;5.80;99.90;;;;;;5011151;28;20033;-74
2023/01/19 12:25:22;;;;;;;2.17;0.40;;;5.80;99.90;;;;;;4998279;28;20104;-75
2023/01/19 12:27:49;;;;;;;2.92;0.32;;;5.80;99.90;;;;;;5006061;28;20025;-75
2023/01/19 12:30:29;;;;;;;4.85;0.30;;;5.70;99.90;;;;;;5003176;28;20041;-73
2023/01/19 12:33:19;;;;;;;2.83;0.45;;;5.70;99.90;;;;;;5005025;28;20082;-74
2023/01/19 12:36:02;;;;;;;1.95;0.52;;;5.60;99.90;;;;;;5019436;28;20041;-75
2023/01/19 12:38:54;;;;;;;3.65;0.38;;;5.50;99.90;;;;;;4997302;28;20037;-75
2023/01/19 12:41:47;;;;;;;3.35;0.30;;;5.50;99.90;;;;;;5001019;28;20113;-75
2023/01/19 12:44:15;;;;;;;4.07;0.20;;;5.50;99.90;;;;;;4999850;28;20034;-74
2023/01/19 12:46:53;;;;;;;2.03;0.35;;;5.50;99.90;;;;;;5006267;28;20096;-74
2023/01/19 12:49:38;;;;;;;5.93;0.63;;;5.50;99.90;;;;;;5015839;28;20044;-74
2023/01/19 12:52:19;;;;;;;3.13;0.20;;;5.50;99.90;;;;;;5013429;28;20476;-74
2023/01/19 12:55:06;;;;;;;1.35;0.28;;;5.50;99.90;;;;;;4998132;28;20043;-74
2023/01/19 12:57:37;;;;;;;7.88;0.47;;;5.60;99.90;;;;;;4998763;28;20038;-75
2023/01/19 13:00:25;;;;;;;4.20;0.50;;;5.70;99.90;;;;;;5000838;28;20486;-75
2023/01/19 13:02:58;;;;;;;5.20;0.30;;;5.70;99.90;;;;;;4999487;28;20097;-76
2023/01/19 13:05:38;;;;;;;9.57;1.27;;;5.80;99.90;;;;;;5003425;28;20042;-76
2023/01/19 13:08:04;;;;;;;;;;;5.80;99.90;;;;;;5005620;28;20661;-75
2023/01/19 13:11:01;;;;;;;1.60;0.38;;;5.80;99.90;;;;;;5000617;28;19972;-75
2023/01/19 13:13:36;;;;;;;2.17;0.20;;;5.80;99.90;;;;;;5003824;28;20041;-74
2023/01/19 13:16:17;;;;;;;2.05;0.17;;;5.80;99.90;;;;;;5001832;28;20041;-74